createdAt,value
2019-02-06T00:02:19.467Z,54.43
2019-02-06T00:04:52.535Z,46.67
2019-02-06T00:07:25.339Z,35.83
2019-02-06T00:09:57.278Z,39.40
2019-02-06T00:12:29.486Z,46.37
2019-02-06T00:15:02.230Z,42.07
2019-02-06T00:17:33.825Z,46.03
2019-02-06T00:20:07.940Z,32.53
2019-02-06T00:22:40.399Z,28.50
2019-02-06T00:25:14.137Z,23.77
2019-02-06T00:27:46.567Z,28.67
2019-02-06T00:30:19.435Z,29.43
2019-02-06T00:32:50.692Z,30.03
2019-02-06T00:35:25.688Z,28.87
2019-02-06T00:37:55.751Z,28.60
2019-02-06T00:40:26.959Z,36.33
2019-02-06T00:42:58.197Z,36.37
2019-02-06T00:45:31.566Z,25.63
2019-02-06T00:48:05.481Z,18.20
2019-02-06T00:50:36.749Z,14.97
2019-02-06T00:53:08.611Z,14.53
2019-02-06T00:55:42.569Z,13.83
2019-02-06T00:58:16.605Z,20.83
2019-02-06T01:00:49.504Z,20.90
2019-02-06T01:03:20.737Z,11.10
2019-02-06T01:05:51.964Z,12.50
2019-02-06T01:08:27.430Z,19.50
2019-02-06T01:11:01.543Z,28.63
2019-02-06T01:13:32.948Z,26.70
2019-02-06T01:16:05.490Z,34.20
2019-02-06T01:18:38.703Z,34.77
2019-02-06T01:21:12.897Z,33.33
2019-02-06T01:23:46.725Z,28.13
2019-02-06T01:26:20.737Z,37.00
2019-02-06T01:28:55.967Z,42.30
2019-02-06T01:31:31.038Z,36.27
2019-02-06T01:34:02.357Z,40.00
2019-02-06T01:36:33.641Z,43.50
2019-02-06T01:39:11.015Z,45.23
2019-02-06T01:41:44.015Z,37.40
2019-02-06T01:44:17.908Z,42.60
2019-02-06T01:46:49.905Z,36.97
2019-02-06T01:49:22.731Z,34.80
2019-02-06T01:51:54.239Z,38.70
2019-02-06T01:54:27.067Z,45.27
2019-02-06T01:56:58.816Z,36.07
2019-02-06T01:59:32.651Z,28.97
2019-02-06T02:02:06.831Z,34.83
2019-02-06T02:04:38.928Z,36.50
2019-02-06T02:07:12.455Z,36.73
2019-02-06T02:09:45.084Z,34.73
2019-02-06T02:12:17.111Z,43.83
2019-02-06T02:14:51.674Z,34.00
2019-02-06T02:17:24.957Z,40.03
2019-02-06T02:19:59.274Z,36.33
2019-02-06T02:22:32.691Z,38.80
2019-02-06T02:25:05.191Z,41.70
2019-02-06T02:27:37.687Z,34.80
2019-02-06T02:30:11.098Z,38.23
2019-02-06T02:32:43.991Z,47.27
2019-02-06T02:35:18.172Z,34.13
2019-02-06T02:37:51.690Z,34.80
2019-02-06T02:40:25.828Z,34.07
2019-02-06T02:42:58.749Z,36.87
2019-02-06T02:45:33.073Z,31.47
2019-02-06T02:48:07.987Z,36.47
2019-02-06T02:50:42.820Z,32.30
2019-02-06T02:53:14.448Z,44.43
2019-02-06T02:55:48.259Z,35.30
2019-02-06T02:58:19.498Z,34.33
2019-02-06T03:01:15.686Z,37.13
2019-02-06T03:04:04.627Z,33.83
2019-02-06T03:06:36.112Z,32.60
2019-02-06T03:09:12.649Z,33.43
2019-02-06T03:11:45.436Z,28.57
2019-02-06T03:14:19.061Z,29.30
2019-02-06T03:16:53.110Z,33.30
2019-02-06T03:19:27.294Z,32.03
2019-02-06T03:21:58.536Z,27.70
2019-02-06T03:24:32.351Z,27.90
2019-02-06T03:27:06.461Z,36.90
2019-02-06T03:29:39.151Z,29.23
2019-02-06T03:32:11.128Z,28.33
2019-02-06T03:34:45.147Z,30.77
2019-02-06T03:37:19.032Z,30.33
2019-02-06T03:39:50.249Z,32.23
2019-02-06T03:42:23.306Z,32.20
2019-02-06T03:44:58.889Z,26.60
2019-02-06T03:47:31.364Z,28.97
2019-02-06T03:50:07.146Z,35.30
2019-02-06T03:52:39.526Z,24.97
2019-02-06T03:55:11.125Z,26.30
2019-02-06T03:57:44.392Z,29.47
2019-02-06T04:00:18.440Z,36.33
2019-02-06T04:02:53.960Z,43.53
2019-02-06T04:05:28.146Z,34.30
2019-02-06T04:08:00.525Z,45.60
2019-02-06T04:10:32.320Z,32.90
2019-02-06T04:13:06.207Z,31.70
2019-02-06T04:15:41.123Z,30.97
2019-02-06T04:18:14.633Z,31.63
2019-02-06T04:20:47.528Z,24.00
2019-02-06T04:23:21.331Z,33.27
2019-02-06T04:25:54.232Z,30.23
2019-02-06T04:28:27.487Z,31.40
2019-02-06T04:31:00.455Z,24.30
2019-02-06T04:33:32.986Z,28.53
2019-02-06T04:36:05.915Z,31.97
2019-02-06T04:38:41.149Z,30.70
2019-02-06T04:41:13.331Z,37.80
2019-02-06T04:43:46.440Z,32.27
2019-02-06T04:46:20.650Z,29.97
2019-02-06T04:48:53.951Z,25.63
2019-02-06T04:51:25.732Z,38.93
2019-02-06T04:53:59.744Z,30.87
2019-02-06T04:56:32.828Z,31.10
2019-02-06T04:59:04.699Z,36.90
2019-02-06T05:01:36.631Z,37.30
2019-02-06T05:04:09.820Z,36.07
2019-02-06T05:06:43.557Z,37.10
2019-02-06T05:09:14.883Z,32.30
2019-02-06T05:11:48.613Z,32.87
2019-02-06T05:14:23.100Z,38.23
2019-02-06T05:16:56.661Z,43.17
2019-02-06T05:19:27.897Z,37.93
2019-02-06T05:21:59.989Z,43.83
2019-02-06T05:24:32.923Z,42.30
2019-02-06T05:27:04.772Z,39.93
2019-02-06T05:29:37.765Z,43.03
2019-02-06T05:32:11.744Z,37.30
2019-02-06T05:34:47.034Z,42.03
2019-02-06T05:37:31.539Z,39.93
2019-02-06T05:39:57.756Z,37.77
2019-02-06T05:42:30.965Z,42.40
2019-02-06T05:45:02.961Z,38.00
2019-02-06T05:47:35.826Z,37.57
2019-02-06T05:50:10.821Z,35.57
2019-02-06T05:52:43.807Z,34.30
2019-02-06T05:55:17.085Z,34.20
2019-02-06T05:57:48.877Z,33.17
2019-02-06T06:00:27.647Z,37.10
2019-02-06T06:02:58.885Z,32.20
2019-02-06T06:05:30.445Z,35.00
2019-02-06T06:08:03.853Z,34.27
2019-02-06T06:10:36.012Z,38.30
2019-02-06T06:13:09.111Z,35.90
2019-02-06T06:15:44.602Z,41.47
2019-02-06T06:18:17.020Z,50.90
2019-02-06T06:20:51.012Z,52.60
2019-02-06T06:23:22.230Z,41.77
2019-02-06T06:25:55.121Z,40.70
2019-02-06T06:28:27.180Z,56.63
2019-02-06T06:31:00.966Z,51.83
2019-02-06T06:33:33.846Z,44.50
2019-02-06T06:36:06.439Z,38.47
2019-02-06T06:38:39.115Z,38.57
2019-02-06T06:41:11.282Z,33.40
2019-02-06T06:43:43.140Z,41.73
2019-02-06T06:46:16.141Z,48.17
2019-02-06T06:48:53.438Z,39.50
2019-02-06T06:51:28.935Z,36.50
2019-02-06T06:54:02.928Z,51.43
2019-02-06T06:56:36.451Z,47.10
2019-02-06T06:59:08.233Z,39.23
2019-02-06T07:01:42.392Z,34.77
2019-02-06T07:04:14.207Z,38.80
2019-02-06T07:06:48.014Z,38.03
2019-02-06T07:09:21.310Z,40.93
2019-02-06T07:11:55.258Z,35.33
2019-02-06T07:14:26.923Z,35.83
2019-02-06T07:17:00.316Z,39.83
2019-02-06T07:19:33.158Z,39.07
2019-02-06T07:22:05.261Z,44.00
2019-02-06T07:24:39.360Z,49.00
2019-02-06T07:27:14.781Z,65.17
2019-02-06T07:29:47.764Z,49.30
2019-02-06T07:32:21.406Z,49.93
2019-02-06T07:34:55.407Z,40.10
2019-02-06T07:37:29.244Z,37.50
2019-02-06T07:40:03.285Z,42.50
2019-02-06T07:42:36.347Z,40.87
2019-02-06T07:45:09.878Z,44.07
2019-02-06T07:47:42.430Z,40.70
2019-02-06T07:50:18.790Z,53.67
2019-02-06T07:52:50.572Z,48.77
2019-02-06T07:55:24.361Z,40.90
2019-02-06T07:57:56.565Z,52.93
2019-02-06T08:00:29.203Z,58.57
2019-02-06T08:03:00.585Z,52.40
2019-02-06T08:05:33.332Z,48.50
2019-02-06T08:08:05.732Z,45.47
2019-02-06T08:10:39.645Z,47.60
2019-02-06T08:13:12.533Z,53.57
2019-02-06T08:15:46.557Z,51.83
2019-02-06T08:18:20.556Z,57.50
2019-02-06T08:20:51.835Z,57.47
2019-02-06T08:23:24.738Z,53.53
2019-02-06T08:25:56.497Z,53.00
2019-02-06T08:28:30.417Z,50.53
2019-02-06T08:31:04.358Z,52.63
2019-02-06T08:33:38.327Z,59.57
2019-02-06T08:36:13.001Z,52.43
2019-02-06T08:38:50.255Z,60.90
2019-02-06T08:41:25.297Z,51.17
2019-02-06T08:43:57.736Z,47.53
2019-02-06T08:46:30.317Z,45.73
2019-02-06T08:49:02.556Z,38.33
2019-02-06T08:51:33.803Z,50.33
2019-02-06T08:54:07.678Z,41.73
2019-02-06T08:56:41.685Z,43.37
2019-02-06T08:59:14.661Z,42.47
2019-02-06T09:01:49.212Z,38.33
2019-02-06T09:04:22.774Z,40.50
2019-02-06T09:06:54.035Z,34.33
2019-02-06T09:09:25.278Z,33.30
2019-02-06T09:11:59.137Z,32.83
2019-02-06T09:14:33.024Z,32.07
2019-02-06T09:17:06.947Z,31.50
2019-02-06T09:19:39.692Z,32.87
2019-02-06T09:22:11.664Z,34.63
2019-02-06T09:24:45.662Z,32.23
2019-02-06T09:27:16.866Z,39.53
2019-02-06T09:29:49.664Z,42.57
2019-02-06T09:32:21.770Z,37.30
2019-02-06T09:34:55.832Z,34.90
2019-02-06T09:37:29.891Z,35.33
2019-02-06T09:40:02.126Z,37.43
2019-02-06T09:42:33.432Z,39.80
2019-02-06T09:45:07.257Z,34.60
2019-02-06T09:47:39.596Z,46.33
2019-02-06T09:50:14.344Z,39.90
2019-02-06T09:52:47.891Z,45.37
2019-02-06T09:55:21.911Z,36.07
2019-02-06T09:57:54.803Z,29.73
2019-02-06T10:00:32.607Z,38.10
2019-02-06T10:03:06.357Z,38.83
2019-02-06T10:05:39.371Z,35.20
2019-02-06T10:08:10.992Z,30.77
2019-02-06T10:10:43.000Z,29.43
2019-02-06T10:13:16.734Z,31.83
2019-02-06T10:15:50.023Z,31.20
2019-02-06T10:18:21.244Z,30.13
2019-02-06T10:20:53.543Z,38.57
2019-02-06T10:23:25.922Z,29.23
2019-02-06T10:25:59.967Z,37.30
2019-02-06T10:28:32.610Z,52.20
2019-02-06T10:31:05.050Z,64.73
2019-02-06T10:33:37.199Z,63.80
2019-02-06T10:36:11.477Z,40.40
2019-02-06T10:38:43.994Z,38.17
2019-02-06T10:41:15.230Z,40.67
2019-02-06T10:43:49.376Z,31.30
2019-02-06T10:46:21.657Z,33.30
2019-02-06T10:48:56.546Z,27.60
2019-02-06T10:51:28.276Z,31.40
2019-02-06T10:54:01.291Z,42.27
2019-02-06T10:56:33.541Z,28.53
2019-02-06T10:59:06.771Z,27.07
2019-02-06T11:01:40.755Z,17.90
2019-02-06T11:04:15.082Z,18.53
2019-02-06T11:06:49.811Z,20.80
2019-02-06T11:09:22.764Z,15.43
2019-02-06T11:11:56.561Z,13.97
2019-02-06T11:14:31.808Z,22.90
2019-02-06T11:17:04.223Z,20.50
2019-02-06T11:19:37.699Z,17.47
2019-02-06T11:22:09.489Z,21.47
2019-02-06T11:24:43.480Z,22.60
2019-02-06T11:27:17.107Z,18.13
2019-02-06T11:29:52.081Z,20.27
2019-02-06T11:32:24.543Z,23.83
2019-02-06T11:34:56.912Z,22.33
2019-02-06T11:37:29.379Z,23.10
2019-02-06T11:40:03.584Z,28.17
2019-02-06T11:42:36.438Z,26.87
2019-02-06T11:45:10.526Z,30.63
2019-02-06T11:47:42.526Z,28.10
2019-02-06T11:50:20.455Z,24.90
2019-02-06T11:52:53.647Z,31.27
2019-02-06T11:55:25.835Z,29.80
2019-02-06T11:57:58.503Z,30.60
2019-02-06T12:00:59.312Z,27.67
2019-02-06T12:03:30.709Z,29.00
2019-02-06T12:06:02.045Z,26.80
2019-02-06T12:08:33.789Z,31.67
2019-02-06T12:11:06.893Z,30.90
2019-02-06T12:13:40.681Z,31.33
2019-02-06T12:16:14.662Z,28.47
2019-02-06T12:18:52.294Z,36.30
2019-02-06T12:21:25.749Z,31.00
2019-02-06T12:24:01.654Z,31.10
2019-02-06T12:26:33.529Z,32.03
2019-02-06T12:29:05.846Z,35.53
2019-02-06T12:31:37.768Z,36.87
2019-02-06T12:34:09.638Z,34.50
2019-02-06T12:36:42.775Z,33.03
2019-02-06T12:39:14.331Z,34.90
2019-02-06T12:41:45.617Z,40.73
2019-02-06T12:44:19.561Z,28.37
2019-02-06T12:46:51.811Z,39.27
2019-02-06T12:49:25.326Z,36.63
2019-02-06T12:51:57.756Z,33.93
2019-02-06T12:54:29.884Z,35.97
2019-02-06T12:57:02.725Z,35.10
2019-02-06T12:59:34.357Z,29.93
2019-02-06T13:02:08.203Z,31.27
2019-02-06T13:04:41.833Z,34.97
2019-02-06T13:07:17.053Z,35.40
2019-02-06T13:09:50.876Z,30.63
2019-02-06T13:12:24.043Z,33.87
2019-02-06T13:14:55.824Z,35.67
2019-02-06T13:17:28.123Z,45.70
2019-02-06T13:19:59.401Z,55.83
2019-02-06T13:22:32.902Z,41.53
2019-02-06T13:25:06.344Z,38.70
2019-02-06T13:27:40.649Z,40.80
2019-02-06T13:30:18.551Z,36.43
2019-02-06T13:32:53.850Z,42.83
2019-02-06T13:35:25.915Z,38.60
2019-02-06T13:37:59.852Z,40.50
2019-02-06T13:40:44.833Z,38.40
2019-02-06T13:43:07.873Z,41.93
2019-02-06T13:45:47.297Z,37.73
2019-02-06T13:48:18.893Z,42.13
2019-02-06T13:50:51.934Z,52.90
2019-02-06T13:53:25.927Z,38.53
2019-02-06T13:55:57.127Z,39.10
2019-02-06T13:58:28.379Z,44.40
2019-02-06T14:00:59.947Z,42.27
2019-02-06T14:03:33.020Z,40.77
2019-02-06T14:06:07.150Z,45.67
2019-02-06T14:08:40.030Z,44.93
2019-02-06T14:11:11.973Z,37.13
2019-02-06T14:13:43.176Z,40.80
2019-02-06T14:16:14.514Z,43.50
2019-02-06T14:18:46.377Z,43.17
2019-02-06T14:21:18.103Z,40.87
2019-02-06T14:24:15.761Z,40.47
2019-02-06T14:27:24.298Z,44.33
2019-02-06T14:30:50.508Z,43.80
2019-02-06T14:33:39.467Z,43.13
2019-02-06T14:36:41.179Z,40.73
2019-02-06T14:39:29.643Z,42.73
2019-02-06T14:42:39.876Z,41.87
2019-02-06T14:46:02.978Z,39.20
2019-02-06T14:49:11.087Z,46.93
2019-02-06T14:52:28.950Z,50.57
2019-02-06T14:55:21.139Z,82.03
2019-02-06T14:58:55.603Z,118.53
2019-02-06T15:01:56.327Z,69.57
2019-02-06T15:05:08.501Z,63.37
2019-02-06T15:08:25.456Z,52.27
2019-02-06T15:11:25.409Z,47.60
2019-02-06T15:14:26.487Z,55.13
2019-02-06T15:17:46.444Z,63.00
2019-02-06T15:20:47.043Z,58.73
2019-02-06T15:23:36.474Z,43.77
2019-02-06T15:26:51.373Z,52.17
2019-02-06T15:29:46.247Z,44.30
2019-02-06T15:33:26.798Z,42.60
2019-02-06T15:36:20.774Z,42.80
2019-02-06T15:39:40.929Z,40.27
2019-02-06T15:42:43.178Z,33.20
2019-02-06T15:45:34.129Z,32.33
2019-02-06T15:48:11.148Z,45.27
2019-02-06T15:51:09.671Z,34.50
2019-02-06T15:54:08.014Z,48.80
2019-02-06T15:57:23.409Z,36.87
2019-02-06T16:00:31.704Z,52.77
2019-02-06T16:04:17.910Z,55.47
2019-02-06T16:07:28.937Z,60.33
2019-02-06T16:10:38.164Z,46.53
2019-02-06T16:13:47.356Z,51.50
2019-02-06T16:17:10.628Z,60.23
2019-02-06T16:20:15.535Z,47.63
2019-02-06T16:23:35.682Z,68.63
2019-02-06T16:26:41.377Z,49.37
2019-02-06T16:30:00.237Z,43.20
2019-02-06T16:33:25.077Z,37.70
2019-02-06T16:36:32.804Z,36.43
2019-02-06T16:39:28.938Z,44.37
2019-02-06T16:42:41.322Z,38.73
2019-02-06T16:45:51.385Z,34.07
2019-02-06T16:48:56.774Z,33.20
2019-02-06T16:52:22.458Z,46.57
2019-02-06T16:55:19.065Z,45.00
2019-02-06T16:58:39.080Z,31.83
2019-02-06T17:02:01.567Z,44.23
2019-02-06T17:05:12.806Z,36.83
2019-02-06T17:08:06.182Z,41.33
2019-02-06T17:11:26.620Z,41.30
2019-02-06T17:14:26.098Z,39.27
2019-02-06T17:17:32.690Z,41.20
2019-02-06T17:20:48.527Z,43.57
2019-02-06T17:23:42.360Z,39.87
2019-02-06T17:26:55.309Z,35.80
2019-02-06T17:30:03.987Z,43.37
2019-02-06T17:33:01.826Z,44.83
2019-02-06T17:36:08.073Z,38.70
2019-02-06T17:39:23.858Z,41.57
2019-02-06T17:42:24.623Z,44.70
2019-02-06T17:45:27.095Z,38.57
2019-02-06T17:48:35.271Z,41.27
2019-02-06T17:51:48.511Z,43.90
2019-02-06T17:54:54.610Z,49.90
2019-02-06T17:57:26.059Z,48.93
2019-02-06T18:00:00.571Z,44.57
2019-02-06T18:02:31.928Z,50.73
2019-02-06T18:05:06.050Z,50.37
2019-02-06T18:07:40.193Z,60.97
2019-02-06T18:10:15.684Z,60.07
2019-02-06T18:12:47.126Z,52.40
2019-02-06T18:15:19.061Z,65.23
2019-02-06T18:17:50.308Z,68.13
2019-02-06T18:20:23.081Z,66.37
2019-02-06T18:22:55.892Z,69.90
2019-02-06T18:25:28.139Z,80.67
2019-02-06T18:28:02.383Z,72.57
2019-02-06T18:30:34.076Z,66.43
2019-02-06T18:33:07.316Z,82.50
2019-02-06T18:35:40.603Z,79.13
2019-02-06T18:38:14.059Z,42.37
2019-02-06T18:40:45.828Z,42.30
2019-02-06T18:43:17.297Z,59.67
2019-02-06T18:45:51.171Z,55.67
2019-02-06T18:48:25.679Z,55.20
2019-02-06T18:50:58.339Z,57.40
2019-02-06T18:53:29.570Z,88.53
2019-02-06T18:56:03.203Z,53.33
2019-02-06T18:58:34.498Z,43.73
2019-02-06T19:01:07.120Z,35.87
2019-02-06T19:03:42.456Z,39.53
2019-02-06T19:06:18.817Z,49.13
2019-02-06T19:08:53.971Z,37.73
2019-02-06T19:11:27.758Z,36.67
2019-02-06T19:14:02.795Z,43.83
2019-02-06T19:16:34.209Z,71.83
2019-02-06T19:19:07.633Z,32.03
2019-02-06T19:21:40.384Z,22.07
2019-02-06T19:24:11.578Z,22.30
2019-02-06T19:26:43.904Z,22.10
2019-02-06T19:29:16.532Z,37.97
2019-02-06T19:31:49.844Z,39.97
2019-02-06T19:34:21.046Z,42.80
2019-02-06T19:36:52.277Z,44.27
2019-02-06T19:39:25.805Z,50.17
2019-02-06T19:41:59.583Z,40.73
2019-02-06T19:44:33.578Z,38.87
2019-02-06T19:47:07.603Z,49.47
2019-02-06T19:49:41.607Z,44.60
2019-02-06T19:52:13.049Z,56.43
2019-02-06T19:54:48.426Z,59.53
2019-02-06T19:57:20.554Z,64.77
2019-02-06T19:59:56.448Z,56.27
2019-02-06T20:02:28.721Z,68.13
2019-02-06T20:05:01.738Z,60.33
2019-02-06T20:07:34.027Z,54.83
2019-02-06T20:10:08.858Z,74.13
2019-02-06T20:12:41.804Z,68.40
2019-02-06T20:15:16.181Z,53.93
2019-02-06T20:17:49.801Z,51.37
2019-02-06T20:20:24.958Z,54.80
2019-02-06T20:22:58.503Z,46.00
2019-02-06T20:25:31.932Z,54.40
2019-02-06T20:28:06.256Z,45.13
2019-02-06T20:30:39.021Z,48.83
2019-02-06T20:33:11.182Z,47.47
2019-02-06T20:35:44.896Z,36.80
2019-02-06T20:38:20.488Z,36.30
2019-02-06T20:40:55.130Z,40.60
2019-02-06T20:43:28.102Z,58.70
2019-02-06T20:46:01.105Z,46.57
2019-02-06T20:48:34.861Z,44.47
2019-02-06T20:51:06.299Z,36.10
2019-02-06T20:53:40.477Z,34.67
2019-02-06T20:56:14.036Z,32.23
2019-02-06T20:58:48.140Z,36.90
2019-02-06T21:01:22.877Z,46.27
2019-02-06T21:03:56.204Z,47.93
2019-02-06T21:06:29.297Z,45.83
2019-02-06T21:09:11.555Z,36.43
2019-02-06T21:11:43.360Z,51.63
2019-02-06T21:14:16.930Z,55.33
2019-02-06T21:16:48.315Z,47.17
2019-02-06T21:19:22.578Z,46.90
2019-02-06T21:21:56.361Z,44.23
2019-02-06T21:24:29.090Z,35.70
2019-02-06T21:27:03.151Z,28.20
2019-02-06T21:29:34.609Z,25.43
2019-02-06T21:32:06.053Z,19.07
2019-02-06T21:34:39.247Z,17.77
2019-02-06T21:37:14.528Z,19.30
2019-02-06T21:39:48.829Z,32.40
2019-02-06T21:42:22.460Z,47.00
2019-02-06T21:44:54.902Z,35.60
2019-02-06T21:47:26.180Z,38.27
2019-02-06T21:49:59.400Z,25.80
2019-02-06T21:52:33.117Z,31.40
2019-02-06T21:55:05.662Z,29.03
2019-02-06T21:57:38.164Z,31.70
2019-02-06T22:00:21.128Z,27.57
2019-02-06T22:02:55.302Z,31.03
2019-02-06T22:05:31.111Z,28.60
2019-02-06T22:08:03.019Z,38.00
2019-02-06T22:10:34.551Z,37.47
2019-02-06T22:13:07.423Z,21.50
2019-02-06T22:15:39.151Z,13.77
2019-02-06T22:18:12.272Z,9.53
2019-02-06T22:20:46.268Z,19.77
2019-02-06T22:23:20.297Z,34.47
2019-02-06T22:25:54.215Z,40.17
2019-02-06T22:28:25.627Z,33.43
2019-02-06T22:30:59.336Z,30.30
2019-02-06T22:33:32.254Z,31.90
2019-02-06T22:36:04.279Z,23.13
2019-02-06T22:38:37.433Z,26.27
2019-02-06T22:41:11.458Z,24.73
2019-02-06T22:43:43.403Z,24.10
2019-02-06T22:46:16.379Z,18.10
2019-02-06T22:48:49.194Z,18.17
2019-02-06T22:51:21.540Z,14.57
2019-02-06T22:53:57.686Z,28.57
2019-02-06T22:56:29.304Z,22.20
2019-02-06T22:59:02.379Z,21.63
2019-02-06T23:01:43.003Z,22.60
2019-02-06T23:04:14.490Z,27.20
2019-02-06T23:06:47.414Z,36.43
2019-02-06T23:09:22.985Z,37.20
2019-02-06T23:11:56.025Z,41.17
2019-02-06T23:14:30.619Z,29.30
2019-02-06T23:17:03.466Z,17.60
2019-02-06T23:19:34.788Z,12.47
2019-02-06T23:22:09.871Z,7.77
2019-02-06T23:24:43.640Z,8.17
2019-02-06T23:27:16.642Z,16.73
2019-02-06T23:29:50.430Z,9.60
2019-02-06T23:32:26.200Z,15.37
2019-02-06T23:34:58.659Z,11.43
2019-02-06T23:37:30.540Z,8.73
2019-02-06T23:40:03.531Z,6.80
2019-02-06T23:42:34.921Z,7.10
2019-02-06T23:45:08.134Z,10.87
2019-02-06T23:47:41.545Z,17.00
2019-02-06T23:50:15.601Z,18.40
2019-02-06T23:52:49.605Z,16.23
2019-02-06T23:55:23.549Z,19.27
2019-02-06T23:57:59.027Z,23.80
